Arabela, New Mexico
Current Conditions -  °F | °C
As of 4:51 AM on Friday 24 Oct 2014 (Local Time) from KROW Reporting Station
Clear Clear  
Wind Chill: 50°   Ceiling: Unl
Heat Index: 50°   Visibility: 10mi
Dew Point: 47°   Wind: 5mph
Humidity: 89%   Direction: 120°ESE
Pressure: 30.16"   Gusts: NA
Location:  33.282°N, 105.13°W
Report Text: KROW 241051Z AUTO 12004KT 10SM CLR 10/08 A3016 RMK AO2 SLP168 T01000083
Loading
Personal Weather Stations






























Interactive Weather Map New forecast layout! Learn more

10-Day Weather Forecast

Advertisements
Track Severe Weather on mobile